Sugar Valley, Texas
Current Conditions -  °F | °C
As of 9:55 PM on Tuesday 27 Jan 2015 (Local Time) from KBYY Reporting Station
Clear Clear  
Wind Chill: 54°   Ceiling: Unl
Heat Index: 54°   Visibility: 10mi
Dew Point: 52°   Wind: 0mph
Humidity: 94%   Direction: NA
Pressure: 30.15"   Gusts: NA
Location:  29.0235°N, 95.7113°W
Report Text: KBYY 280355Z AUTO 00000KT 10SM CLR 12/11 A3015 RMK AO2 T01200111
Loading
Personal Weather Stations






























Interactive Weather Map New forecast layout! Learn more

10-Day Weather Forecast

Advertisements
Track Severe Weather on mobile